sensor_id;sensor_type;location;lat;lon;timestamp;P1;durP1;ratioP1;P2;durP2;ratioP2
72720;SDS011;60835;50.974;10.322;2023-02-15T10:23:54;6.05;;;4.10;;
72720;SDS011;60835;50.974;10.322;2023-02-15T10:26:19;4.93;;;3.90;;
72720;SDS011;60835;50.974;10.322;2023-02-15T10:28:50;5.13;;;3.72;;
72720;SDS011;60835;50.974;10.322;2023-02-15T10:31:38;4.63;;;3.63;;
72720;SDS011;60835;50.974;10.322;2023-02-15T10:39:43;5.05;;;4.32;;
72720;SDS011;60835;50.974;10.322;2023-02-15T10:42:23;7.18;;;4.60;;
72720;SDS011;60835;50.974;10.322;2023-02-15T10:50:52;5.32;;;4.13;;
72720;SDS011;60835;50.974;10.322;2023-02-15T10:53:41;4.57;;;3.80;;
72720;SDS011;60835;50.974;10.322;2023-02-15T10:56:24;4.85;;;4.18;;
72720;SDS011;60835;50.974;10.322;2023-02-15T11:01:50;6.72;;;5.10;;
72720;SDS011;60835;50.974;10.322;2023-02-15T11:04:36;6.03;;;4.05;;
72720;SDS011;60835;50.974;10.322;2023-02-15T11:07:07;4.78;;;3.72;;
72720;SDS011;60835;50.974;10.322;2023-02-15T11:09:42;5.18;;;4.07;;
72720;SDS011;60835;50.974;10.322;2023-02-15T11:12:20;5.45;;;3.92;;
72720;SDS011;60835;50.974;10.322;2023-02-15T11:17:56;4.78;;;4.03;;
72720;SDS011;60835;50.974;10.322;2023-02-15T11:20:30;5.97;;;4.50;;
72720;SDS011;60835;50.974;10.322;2023-02-15T11:23:06;4.80;;;4.15;;
72720;SDS011;60835;50.974;10.322;2023-02-15T11:25:42;5.20;;;4.07;;
72720;SDS011;60835;50.974;10.322;2023-02-15T11:28:22;6.22;;;4.05;;
72720;SDS011;60835;50.974;10.322;2023-02-15T11:30:54;5.55;;;4.53;;
72720;SDS011;60835;50.974;10.322;2023-02-15T11:33:25;5.63;;;4.40;;
72720;SDS011;60835;50.974;10.322;2023-02-15T11:35:58;5.53;;;4.70;;
72720;SDS011;60835;50.974;10.322;2023-02-15T11:38:31;5.35;;;4.63;;
72720;SDS011;60835;50.974;10.322;2023-02-15T11:41:00;6.53;;;4.00;;
72720;SDS011;60835;50.974;10.322;2023-02-15T11:46:10;9.23;;;5.35;;
72720;SDS011;60835;50.974;10.322;2023-02-15T11:48:38;5.20;;;4.30;;
72720;SDS011;60835;50.974;10.322;2023-02-15T11:51:05;6.47;;;4.53;;
72720;SDS011;60835;50.974;10.322;2023-02-15T11:53:36;7.22;;;4.43;;
72720;SDS011;60835;50.974;10.322;2023-02-15T11:56:04;6.35;;;4.68;;
72720;SDS011;60835;50.974;10.322;2023-02-15T11:58:40;7.10;;;4.22;;
72720;SDS011;60835;50.974;10.322;2023-02-15T12:01:21;7.03;;;5.45;;
72720;SDS011;60835;50.974;10.322;2023-02-15T12:03:54;6.28;;;5.07;;
72720;SDS011;60835;50.974;10.322;2023-02-15T12:11:37;8.27;;;5.15;;
72720;SDS011;60835;50.974;10.322;2023-02-15T12:14:06;7.57;;;5.05;;
72720;SDS011;60835;50.974;10.322;2023-02-15T12:16:51;7.07;;;4.40;;
72720;SDS011;60835;50.974;10.322;2023-02-15T12:19:24;6.85;;;5.07;;
72720;SDS011;60835;50.974;10.322;2023-02-15T12:21:56;7.70;;;6.07;;
72720;SDS011;60835;50.974;10.322;2023-02-15T12:24:34;16.27;;;12.40;;
72720;SDS011;60835;50.974;10.322;2023-02-15T12:27:14;6.57;;;5.50;;
72720;SDS011;60835;50.974;10.322;2023-02-15T12:29:56;5.55;;;4.60;;
72720;SDS011;60835;50.974;10.322;2023-02-15T12:32:30;6.75;;;4.57;;
72720;SDS011;60835;50.974;10.322;2023-02-15T12:35:09;5.28;;;4.40;;
72720;SDS011;60835;50.974;10.322;2023-02-15T12:37:52;6.40;;;4.72;;
72720;SDS011;60835;50.974;10.322;2023-02-15T12:40:23;6.05;;;5.05;;
72720;SDS011;60835;50.974;10.322;2023-02-15T12:42:53;14.98;;;10.07;;
72720;SDS011;60835;50.974;10.322;2023-02-15T12:48:24;7.78;;;5.90;;
72720;SDS011;60835;50.974;10.322;2023-02-15T12:50:48;4.80;;;4.32;;
72720;SDS011;60835;50.974;10.322;2023-02-15T12:53:34;5.85;;;4.78;;
72720;SDS011;60835;50.974;10.322;2023-02-15T12:56:06;5.78;;;4.93;;
72720;SDS011;60835;50.974;10.322;2023-02-15T12:58:35;5.47;;;4.63;;
72720;SDS011;60835;50.974;10.322;2023-02-15T13:03:55;5.15;;;4.53;;
72720;SDS011;60835;50.974;10.322;2023-02-15T13:06:27;6.13;;;4.95;;
72720;SDS011;60835;50.974;10.322;2023-02-15T13:09:05;5.95;;;5.05;;
72720;SDS011;60835;50.974;10.322;2023-02-15T13:11:40;5.68;;;4.60;;
72720;SDS011;60835;50.974;10.322;2023-02-15T13:14:16;5.20;;;4.57;;
72720;SDS011;60835;50.974;10.322;2023-02-15T13:16:44;8.40;;;4.75;;
72720;SDS011;60835;50.974;10.322;2023-02-15T13:21:45;6.82;;;5.10;;
72720;SDS011;60835;50.974;10.322;2023-02-15T13:25:17;5.57;;;5.05;;
72720;SDS011;60835;50.974;10.322;2023-02-15T13:27:16;8.50;;;5.43;;
72720;SDS011;60835;50.974;10.322;2023-02-15T13:29:52;6.88;;;5.82;;
72720;SDS011;60835;50.974;10.322;2023-02-15T13:32:28;7.05;;;5.28;;
72720;SDS011;60835;50.974;10.322;2023-02-15T13:34:58;5.78;;;5.13;;
72720;SDS011;60835;50.974;10.322;2023-02-15T13:40:36;6.88;;;5.93;;
72720;SDS011;60835;50.974;10.322;2023-02-15T13:43:25;6.13;;;5.53;;
72720;SDS011;60835;50.974;10.322;2023-02-15T13:48:41;6.90;;;6.00;;
72720;SDS011;60835;50.974;10.322;2023-02-15T14:02:30;7.28;;;6.18;;
72720;SDS011;60835;50.974;10.322;2023-02-15T14:13:29;10.27;;;6.70;;
72720;SDS011;60835;50.974;10.322;2023-02-15T14:18:55;10.05;;;6.53;;
72720;SDS011;60835;50.974;10.322;2023-02-15T14:24:38;10.77;;;6.72;;
72720;SDS011;60835;50.974;10.322;2023-02-15T14:27:17;10.80;;;6.93;;
72720;SDS011;60835;50.974;10.322;2023-02-15T14:29:57;12.98;;;7.05;;
72720;SDS011;60835;50.974;10.322;2023-02-15T14:35:14;10.65;;;6.32;;
72720;SDS011;60835;50.974;10.322;2023-02-15T14:37:46;12.07;;;7.22;;
72720;SDS011;60835;50.974;10.322;2023-02-15T14:40:36;12.43;;;6.88;;
72720;SDS011;60835;50.974;10.322;2023-02-15T14:43:34;10.18;;;6.45;;
72720;SDS011;60835;50.974;10.322;2023-02-15T14:46:27;12.23;;;7.30;;
72720;SDS011;60835;50.974;10.322;2023-02-15T14:49:12;13.50;;;6.95;;
72720;SDS011;60835;50.974;10.322;2023-02-15T14:56:44;12.55;;;7.72;;
72720;SDS011;60835;50.974;10.322;2023-02-15T15:01:38;13.55;;;7.72;;
72720;SDS011;60835;50.974;10.322;2023-02-15T15:04:07;11.40;;;6.65;;
72720;SDS011;60835;50.974;10.322;2023-02-15T15:06:38;11.63;;;7.15;;
72720;SDS011;60835;50.974;10.322;2023-02-15T15:09:24;11.10;;;7.10;;
72720;SDS011;60835;50.974;10.322;2023-02-15T15:11:54;13.52;;;8.02;;
72720;SDS011;60835;50.974;10.322;2023-02-15T15:14:42;11.77;;;7.38;;
72720;SDS011;60835;50.974;10.322;2023-02-15T15:17:10;14.02;;;8.15;;
72720;SDS011;60835;50.974;10.322;2023-02-15T15:22:18;11.10;;;7.07;;
72720;SDS011;60835;50.974;10.322;2023-02-15T15:24:47;16.90;;;8.02;;
72720;SDS011;60835;50.974;10.322;2023-02-15T15:43:31;16.73;;;8.18;;
72720;SDS011;60835;50.974;10.322;2023-02-15T15:49:14;14.13;;;8.18;;
72720;SDS011;60835;50.974;10.322;2023-02-15T15:51:44;17.23;;;8.48;;
72720;SDS011;60835;50.974;10.322;2023-02-15T15:54:18;15.52;;;8.18;;
72720;SDS011;60835;50.974;10.322;2023-02-15T15:56:53;13.60;;;8.10;;
72720;SDS011;60835;50.974;10.322;2023-02-15T16:01:51;17.08;;;8.40;;
72720;SDS011;60835;50.974;10.322;2023-02-15T16:04:23;16.77;;;8.65;;
72720;SDS011;60835;50.974;10.322;2023-02-15T16:07:41;19.33;;;9.02;;
72720;SDS011;60835;50.974;10.322;2023-02-15T16:12:31;17.88;;;9.02;;
72720;SDS011;60835;50.974;10.322;2023-02-15T16:15:04;17.77;;;9.48;;
72720;SDS011;60835;50.974;10.322;2023-02-15T16:17:41;17.15;;;9.18;;
72720;SDS011;60835;50.974;10.322;2023-02-15T16:20:14;15.23;;;8.43;;
72720;SDS011;60835;50.974;10.322;2023-02-15T16:22:48;15.15;;;8.48;;
72720;SDS011;60835;50.974;10.322;2023-02-15T16:25:31;16.13;;;8.40;;
72720;SDS011;60835;50.974;10.322;2023-02-15T16:28:19;20.27;;;9.43;;
72720;SDS011;60835;50.974;10.322;2023-02-15T16:30:54;16.65;;;9.13;;
72720;SDS011;60835;50.974;10.322;2023-02-15T16:36:04;17.23;;;8.90;;
72720;SDS011;60835;50.974;10.322;2023-02-15T16:41:09;14.90;;;8.00;;
72720;SDS011;60835;50.974;10.322;2023-02-15T16:43:39;16.08;;;9.23;;
72720;SDS011;60835;50.974;10.322;2023-02-15T16:46:12;17.95;;;8.50;;
72720;SDS011;60835;50.974;10.322;2023-02-15T16:48:47;17.85;;;9.00;;
72720;SDS011;60835;50.974;10.322;2023-02-15T16:51:21;22.02;;;9.82;;
72720;SDS011;60835;50.974;10.322;2023-02-15T16:53:54;18.15;;;9.60;;
72720;SDS011;60835;50.974;10.322;2023-02-15T16:56:22;21.05;;;9.73;;
72720;SDS011;60835;50.974;10.322;2023-02-15T16:58:53;18.30;;;10.23;;
72720;SDS011;60835;50.974;10.322;2023-02-15T17:01:22;17.77;;;10.13;;
72720;SDS011;60835;50.974;10.322;2023-02-15T17:04:09;19.98;;;10.43;;
72720;SDS011;60835;50.974;10.322;2023-02-15T17:06:57;20.65;;;9.95;;
72720;SDS011;60835;50.974;10.322;2023-02-15T17:09:29;21.40;;;11.25;;
72720;SDS011;60835;50.974;10.322;2023-02-15T17:11:56;20.70;;;9.45;;
72720;SDS011;60835;50.974;10.322;2023-02-15T17:14:28;22.02;;;10.50;;
72720;SDS011;60835;50.974;10.322;2023-02-15T17:17:08;19.55;;;9.65;;
72720;SDS011;60835;50.974;10.322;2023-02-15T17:19:50;18.05;;;9.38;;
72720;SDS011;60835;50.974;10.322;2023-02-15T17:22:20;22.27;;;10.50;;
72720;SDS011;60835;50.974;10.322;2023-02-15T17:24:50;20.40;;;10.60;;
72720;SDS011;60835;50.974;10.322;2023-02-15T17:27:25;21.02;;;10.75;;
72720;SDS011;60835;50.974;10.322;2023-02-15T17:29:57;21.23;;;11.05;;
72720;SDS011;60835;50.974;10.322;2023-02-15T17:32:28;19.42;;;10.35;;
72720;SDS011;60835;50.974;10.322;2023-02-15T17:39:52;19.13;;;10.30;;
72720;SDS011;60835;50.974;10.322;2023-02-15T17:42:19;20.67;;;10.65;;
72720;SDS011;60835;50.974;10.322;2023-02-15T17:44:46;18.60;;;10.00;;
72720;SDS011;60835;50.974;10.322;2023-02-15T17:47:13;20.02;;;10.55;;
72720;SDS011;60835;50.974;10.322;2023-02-15T17:49:43;20.42;;;10.40;;
72720;SDS011;60835;50.974;10.322;2023-02-15T17:52:11;18.33;;;10.38;;
72720;SDS011;60835;50.974;10.322;2023-02-15T17:54:40;19.35;;;10.70;;
72720;SDS011;60835;50.974;10.322;2023-02-15T17:57:26;22.77;;;10.52;;
72720;SDS011;60835;50.974;10.322;2023-02-15T17:59:53;23.17;;;11.10;;
72720;SDS011;60835;50.974;10.322;2023-02-15T18:02:39;19.13;;;9.93;;
72720;SDS011;60835;50.974;10.322;2023-02-15T18:05:24;22.00;;;10.73;;
72720;SDS011;60835;50.974;10.322;2023-02-15T18:08:13;19.65;;;9.77;;
72720;SDS011;60835;50.974;10.322;2023-02-15T18:11:00;16.25;;;8.93;;
72720;SDS011;60835;50.974;10.322;2023-02-15T18:13:45;20.13;;;10.90;;
72720;SDS011;60835;50.974;10.322;2023-02-15T18:16:17;19.50;;;10.43;;
72720;SDS011;60835;50.974;10.322;2023-02-15T18:18:49;20.30;;;10.55;;
72720;SDS011;60835;50.974;10.322;2023-02-15T18:21:18;20.98;;;10.35;;
72720;SDS011;60835;50.974;10.322;2023-02-15T18:23:45;21.45;;;11.18;;
72720;SDS011;60835;50.974;10.322;2023-02-15T18:26:16;21.52;;;10.90;;
72720;SDS011;60835;50.974;10.322;2023-02-15T18:28:45;19.65;;;10.35;;
72720;SDS011;60835;50.974;10.322;2023-02-15T18:31:12;20.95;;;11.15;;
72720;SDS011;60835;50.974;10.322;2023-02-15T18:33:46;17.80;;;9.45;;
72720;SDS011;60835;50.974;10.322;2023-02-15T18:36:24;16.63;;;9.68;;
72720;SDS011;60835;50.974;10.322;2023-02-15T18:38:54;22.13;;;11.20;;
72720;SDS011;60835;50.974;10.322;2023-02-15T18:41:21;21.27;;;10.82;;
72720;SDS011;60835;50.974;10.322;2023-02-15T18:43:49;22.98;;;11.30;;
72720;SDS011;60835;50.974;10.322;2023-02-15T18:46:16;19.90;;;10.57;;
72720;SDS011;60835;50.974;10.322;2023-02-15T18:48:43;22.88;;;12.25;;
72720;SDS011;60835;50.974;10.322;2023-02-15T18:51:15;23.20;;;11.18;;
72720;SDS011;60835;50.974;10.322;2023-02-15T18:53:47;22.95;;;10.98;;
72720;SDS011;60835;50.974;10.322;2023-02-15T18:56:17;19.55;;;10.70;;
72720;SDS011;60835;50.974;10.322;2023-02-15T18:58:46;23.42;;;11.85;;
72720;SDS011;60835;50.974;10.322;2023-02-15T19:01:14;20.85;;;10.40;;
72720;SDS011;60835;50.974;10.322;2023-02-15T19:03:46;21.00;;;11.27;;
72720;SDS011;60835;50.974;10.322;2023-02-15T19:06:24;22.20;;;10.95;;
72720;SDS011;60835;50.974;10.322;2023-02-15T19:08:51;22.88;;;11.85;;
72720;SDS011;60835;50.974;10.322;2023-02-15T19:11:19;24.48;;;11.90;;
72720;SDS011;60835;50.974;10.322;2023-02-15T19:13:49;23.48;;;10.68;;
72720;SDS011;60835;50.974;10.322;2023-02-15T19:16:21;20.80;;;11.07;;
72720;SDS011;60835;50.974;10.322;2023-02-15T19:18:53;23.48;;;11.82;;
72720;SDS011;60835;50.974;10.322;2023-02-15T19:21:24;20.48;;;10.98;;
72720;SDS011;60835;50.974;10.322;2023-02-15T19:23:57;22.52;;;10.85;;
72720;SDS011;60835;50.974;10.322;2023-02-15T19:26:27;22.95;;;11.73;;
72720;SDS011;60835;50.974;10.322;2023-02-15T19:29:11;22.92;;;10.95;;
72720;SDS011;60835;50.974;10.322;2023-02-15T19:31:42;20.40;;;10.88;;
72720;SDS011;60835;50.974;10.322;2023-02-15T19:34:12;26.02;;;11.90;;
72720;SDS011;60835;50.974;10.322;2023-02-15T19:36:41;23.27;;;11.70;;
72720;SDS011;60835;50.974;10.322;2023-02-15T19:39:23;22.52;;;11.60;;
72720;SDS011;60835;50.974;10.322;2023-02-15T19:41:52;23.35;;;11.95;;
72720;SDS011;60835;50.974;10.322;2023-02-15T19:44:19;21.52;;;11.45;;
72720;SDS011;60835;50.974;10.322;2023-02-15T19:46:46;21.88;;;11.32;;
72720;SDS011;60835;50.974;10.322;2023-02-15T19:49:12;22.13;;;11.20;;
72720;SDS011;60835;50.974;10.322;2023-02-15T19:51:39;24.52;;;11.13;;
72720;SDS011;60835;50.974;10.322;2023-02-15T19:54:15;25.65;;;12.15;;
72720;SDS011;60835;50.974;10.322;2023-02-15T19:56:44;22.65;;;11.02;;
72720;SDS011;60835;50.974;10.322;2023-02-15T19:59:24;25.08;;;11.75;;
72720;SDS011;60835;50.974;10.322;2023-02-15T20:01:52;23.42;;;11.55;;
72720;SDS011;60835;50.974;10.322;2023-02-15T20:04:20;23.40;;;11.60;;
72720;SDS011;60835;50.974;10.322;2023-02-15T20:06:47;27.00;;;12.23;;
72720;SDS011;60835;50.974;10.322;2023-02-15T20:09:22;22.88;;;11.00;;
72720;SDS011;60835;50.974;10.322;2023-02-15T20:11:51;31.77;;;14.13;;
72720;SDS011;60835;50.974;10.322;2023-02-15T20:14:19;27.27;;;12.88;;
72720;SDS011;60835;50.974;10.322;2023-02-15T20:16:45;25.40;;;12.63;;
72720;SDS011;60835;50.974;10.322;2023-02-15T20:19:12;23.73;;;12.00;;
72720;SDS011;60835;50.974;10.322;2023-02-15T20:21:40;26.50;;;13.23;;
72720;SDS011;60835;50.974;10.322;2023-02-15T20:24:12;22.00;;;11.43;;
72720;SDS011;60835;50.974;10.322;2023-02-15T20:26:42;28.73;;;12.45;;
72720;SDS011;60835;50.974;10.322;2023-02-15T20:29:13;22.52;;;11.60;;
72720;SDS011;60835;50.974;10.322;2023-02-15T20:31:43;26.15;;;12.65;;
72720;SDS011;60835;50.974;10.322;2023-02-15T20:34:10;23.75;;;12.25;;
72720;SDS011;60835;50.974;10.322;2023-02-15T20:36:38;22.98;;;11.30;;
72720;SDS011;60835;50.974;10.322;2023-02-15T20:39:15;23.90;;;10.70;;
72720;SDS011;60835;50.974;10.322;2023-02-15T20:41:45;27.02;;;12.32;;
72720;SDS011;60835;50.974;10.322;2023-02-15T20:46:48;24.20;;;11.35;;
72720;SDS011;60835;50.974;10.322;2023-02-15T20:49:16;26.25;;;12.32;;
72720;SDS011;60835;50.974;10.322;2023-02-15T20:51:43;23.13;;;12.25;;
72720;SDS011;60835;50.974;10.322;2023-02-15T20:54:16;23.15;;;11.73;;
72720;SDS011;60835;50.974;10.322;2023-02-15T20:56:45;24.52;;;11.85;;
72720;SDS011;60835;50.974;10.322;2023-02-15T20:59:28;26.08;;;13.07;;
72720;SDS011;60835;50.974;10.322;2023-02-15T21:01:58;26.73;;;11.93;;
72720;SDS011;60835;50.974;10.322;2023-02-15T21:04:28;28.77;;;13.75;;
72720;SDS011;60835;50.974;10.322;2023-02-15T21:06:56;29.58;;;13.90;;
72720;SDS011;60835;50.974;10.322;2023-02-15T21:09:24;25.33;;;12.05;;
72720;SDS011;60835;50.974;10.322;2023-02-15T21:11:51;24.40;;;11.70;;
72720;SDS011;60835;50.974;10.322;2023-02-15T21:14:20;26.10;;;12.68;;
72720;SDS011;60835;50.974;10.322;2023-02-15T21:16:49;25.98;;;13.15;;
72720;SDS011;60835;50.974;10.322;2023-02-15T21:19:20;22.10;;;11.00;;
72720;SDS011;60835;50.974;10.322;2023-02-15T21:21:49;30.02;;;12.60;;
72720;SDS011;60835;50.974;10.322;2023-02-15T21:24:19;27.10;;;14.52;;
72720;SDS011;60835;50.974;10.322;2023-02-15T21:26:48;26.25;;;13.65;;
72720;SDS011;60835;50.974;10.322;2023-02-15T21:29:19;29.67;;;13.82;;
72720;SDS011;60835;50.974;10.322;2023-02-15T21:31:47;26.63;;;12.82;;
72720;SDS011;60835;50.974;10.322;2023-02-15T21:34:20;26.00;;;12.73;;
72720;SDS011;60835;50.974;10.322;2023-02-15T21:36:47;26.10;;;12.95;;
72720;SDS011;60835;50.974;10.322;2023-02-15T21:41:52;28.20;;;12.77;;
72720;SDS011;60835;50.974;10.322;2023-02-15T21:44:39;26.55;;;12.27;;
72720;SDS011;60835;50.974;10.322;2023-02-15T21:47:28;30.88;;;14.23;;
72720;SDS011;60835;50.974;10.322;2023-02-15T21:50:15;28.58;;;13.18;;
72720;SDS011;60835;50.974;10.322;2023-02-15T21:53:03;27.77;;;13.32;;
72720;SDS011;60835;50.974;10.322;2023-02-15T21:55:31;29.00;;;14.05;;
72720;SDS011;60835;50.974;10.322;2023-02-15T21:57:58;30.50;;;14.18;;
72720;SDS011;60835;50.974;10.322;2023-02-15T22:00:28;26.92;;;13.32;;
72720;SDS011;60835;50.974;10.322;2023-02-15T22:02:56;30.00;;;13.93;;
72720;SDS011;60835;50.974;10.322;2023-02-15T22:05:29;29.30;;;14.18;;
72720;SDS011;60835;50.974;10.322;2023-02-15T22:07:58;27.65;;;14.73;;
72720;SDS011;60835;50.974;10.322;2023-02-15T22:10:25;31.60;;;14.38;;
72720;SDS011;60835;50.974;10.322;2023-02-15T22:13:02;33.58;;;15.90;;
72720;SDS011;60835;50.974;10.322;2023-02-15T22:15:35;30.45;;;13.77;;
72720;SDS011;60835;50.974;10.322;2023-02-15T22:18:02;32.20;;;14.07;;
72720;SDS011;60835;50.974;10.322;2023-02-15T22:20:30;29.42;;;14.48;;
72720;SDS011;60835;50.974;10.322;2023-02-15T22:22:57;32.60;;;15.40;;
72720;SDS011;60835;50.974;10.322;2023-02-15T22:25:24;30.10;;;14.65;;
72720;SDS011;60835;50.974;10.322;2023-02-15T22:28:08;33.78;;;16.20;;
72720;SDS011;60835;50.974;10.322;2023-02-15T22:30:42;32.33;;;15.15;;
72720;SDS011;60835;50.974;10.322;2023-02-15T22:33:19;34.63;;;16.60;;
72720;SDS011;60835;50.974;10.322;2023-02-15T22:35:48;31.92;;;15.50;;
72720;SDS011;60835;50.974;10.322;2023-02-15T22:38:15;34.45;;;15.27;;
72720;SDS011;60835;50.974;10.322;2023-02-15T22:40:41;34.80;;;15.55;;
72720;SDS011;60835;50.974;10.322;2023-02-15T22:43:14;31.92;;;15.98;;
72720;SDS011;60835;50.974;10.322;2023-02-15T22:45:47;32.38;;;15.73;;
72720;SDS011;60835;50.974;10.322;2023-02-15T22:48:14;32.90;;;14.95;;
72720;SDS011;60835;50.974;10.322;2023-02-15T22:50:46;34.75;;;16.23;;
72720;SDS011;60835;50.974;10.322;2023-02-15T22:53:13;31.63;;;16.17;;
72720;SDS011;60835;50.974;10.322;2023-02-15T22:55:39;34.25;;;15.82;;
72720;SDS011;60835;50.974;10.322;2023-02-15T22:58:06;33.25;;;16.38;;
72720;SDS011;60835;50.974;10.322;2023-02-15T23:00:41;34.40;;;16.55;;
72720;SDS011;60835;50.974;10.322;2023-02-15T23:03:15;32.85;;;15.68;;
72720;SDS011;60835;50.974;10.322;2023-02-15T23:05:44;33.90;;;16.25;;
72720;SDS011;60835;50.974;10.322;2023-02-15T23:08:12;33.33;;;16.38;;
72720;SDS011;60835;50.974;10.322;2023-02-15T23:10:39;32.83;;;15.35;;
72720;SDS011;60835;50.974;10.322;2023-02-15T23:13:21;32.53;;;15.80;;
72720;SDS011;60835;50.974;10.322;2023-02-15T23:15:53;35.30;;;16.98;;
72720;SDS011;60835;50.974;10.322;2023-02-15T23:20:58;33.13;;;16.58;;
72720;SDS011;60835;50.974;10.322;2023-02-15T23:23:49;39.35;;;17.60;;
72720;SDS011;60835;50.974;10.322;2023-02-15T23:26:22;38.40;;;17.02;;
72720;SDS011;60835;50.974;10.322;2023-02-15T23:28:54;38.25;;;16.73;;
72720;SDS011;60835;50.974;10.322;2023-02-15T23:31:27;38.90;;;17.17;;
72720;SDS011;60835;50.974;10.322;2023-02-15T23:34:10;37.53;;;16.60;;
72720;SDS011;60835;50.974;10.322;2023-02-15T23:36:44;36.53;;;16.80;;
72720;SDS011;60835;50.974;10.322;2023-02-15T23:39:14;37.45;;;17.42;;
72720;SDS011;60835;50.974;10.322;2023-02-15T23:42:21;37.20;;;17.25;;
72720;SDS011;60835;50.974;10.322;2023-02-15T23:44:51;44.58;;;20.30;;
72720;SDS011;60835;50.974;10.322;2023-02-15T23:47:31;44.42;;;19.13;;
72720;SDS011;60835;50.974;10.322;2023-02-15T23:50:19;42.65;;;19.35;;
72720;SDS011;60835;50.974;10.322;2023-02-15T23:52:51;50.72;;;20.23;;
72720;SDS011;60835;50.974;10.322;2023-02-15T23:55:20;42.35;;;19.65;;
72720;SDS011;60835;50.974;10.322;2023-02-15T23:57:47;44.25;;;19.35;;
